PH-0074 weather

Lal-lo Airstrip
Lal-lo, Cagayan Province, Philippines

Public forecast

Using degrees Celsius for public forecast. Weather courtesy of forecast.io.

METAR (pilot weather report)

Closest report is Laoag International Airport, 65.9 nm (122.1 km) W. Retrieved 2019/06/17 11:00 UTC (23 minutes ago):

RPLI 171100Z 02003KT 9999 FEW017CB SCT100 BKN270 30/27 Q1010 NOSIG RMK A2983 CB SE S

TAF (pilot weather forecast)

Closest forecast is Laoag International Airport, 65.9 nm (122.1 km) W. Retrieved 2019/06/17 06:00 UTC (5 hours ago):

TAF RPLI 170500Z 1706/1806 26008KT 9999 FEW018 BKN100 TEMPO 1706/1712 23016KT 8000 TS -SHRA SCT017CB BKN080